sensor_id;sensor_type;location;lat;lon;timestamp;P1;durP1;ratioP1;P2;durP2;ratioP2
27957;SDS011;15295;42.658;23.374;2023-04-03T00:00:56;8.82;;;2.80;;
27957;SDS011;15295;42.658;23.374;2023-04-03T00:03:22;7.20;;;3.17;;
27957;SDS011;15295;42.658;23.374;2023-04-03T00:05:47;6.88;;;3.25;;
27957;SDS011;15295;42.658;23.374;2023-04-03T00:08:13;5.65;;;2.78;;
27957;SDS011;15295;42.658;23.374;2023-04-03T00:10:40;4.57;;;2.60;;
27957;SDS011;15295;42.658;23.374;2023-04-03T00:13:06;4.60;;;2.88;;
27957;SDS011;15295;42.658;23.374;2023-04-03T00:15:32;6.10;;;2.70;;
27957;SDS011;15295;42.658;23.374;2023-04-03T00:17:57;6.22;;;2.40;;
27957;SDS011;15295;42.658;23.374;2023-04-03T00:20:36;6.32;;;2.63;;
27957;SDS011;15295;42.658;23.374;2023-04-03T00:23:03;5.68;;;2.65;;
27957;SDS011;15295;42.658;23.374;2023-04-03T00:25:28;4.65;;;2.58;;
27957;SDS011;15295;42.658;23.374;2023-04-03T00:27:54;4.97;;;2.30;;
27957;SDS011;15295;42.658;23.374;2023-04-03T00:30:20;4.35;;;2.30;;
27957;SDS011;15295;42.658;23.374;2023-04-03T00:32:56;4.20;;;2.38;;
27957;SDS011;15295;42.658;23.374;2023-04-03T00:35:22;5.18;;;2.53;;
27957;SDS011;15295;42.658;23.374;2023-04-03T00:37:50;4.82;;;2.40;;
27957;SDS011;15295;42.658;23.374;2023-04-03T00:40:17;5.15;;;2.78;;
27957;SDS011;15295;42.658;23.374;2023-04-03T00:42:43;5.00;;;2.67;;
27957;SDS011;15295;42.658;23.374;2023-04-03T00:47:57;4.13;;;2.38;;
27957;SDS011;15295;42.658;23.374;2023-04-03T00:50:32;4.60;;;2.35;;
27957;SDS011;15295;42.658;23.374;2023-04-03T00:53:03;5.05;;;2.42;;
27957;SDS011;15295;42.658;23.374;2023-04-03T00:55:29;4.15;;;2.30;;
27957;SDS011;15295;42.658;23.374;2023-04-03T00:57:55;4.90;;;2.65;;
27957;SDS011;15295;42.658;23.374;2023-04-03T01:00:21;6.80;;;2.85;;
27957;SDS011;15295;42.658;23.374;2023-04-03T01:02:49;6.20;;;2.60;;
27957;SDS011;15295;42.658;23.374;2023-04-03T01:05:16;5.80;;;3.05;;
27957;SDS011;15295;42.658;23.374;2023-04-03T01:07:42;6.65;;;2.95;;
27957;SDS011;15295;42.658;23.374;2023-04-03T01:10:09;8.25;;;2.88;;
27957;SDS011;15295;42.658;23.374;2023-04-03T01:12:45;5.72;;;2.65;;
27957;SDS011;15295;42.658;23.374;2023-04-03T01:15:13;5.00;;;2.58;;
27957;SDS011;15295;42.658;23.374;2023-04-03T01:17:52;8.60;;;3.20;;
27957;SDS011;15295;42.658;23.374;2023-04-03T01:20:26;5.50;;;2.80;;
27957;SDS011;15295;42.658;23.374;2023-04-03T01:25:35;4.75;;;2.70;;
27957;SDS011;15295;42.658;23.374;2023-04-03T01:28:13;5.78;;;3.00;;
27957;SDS011;15295;42.658;23.374;2023-04-03T01:30:43;4.75;;;2.72;;
27957;SDS011;15295;42.658;23.374;2023-04-03T01:33:15;6.70;;;3.00;;
27957;SDS011;15295;42.658;23.374;2023-04-03T01:35:40;7.88;;;3.55;;
27957;SDS011;15295;42.658;23.374;2023-04-03T01:38:05;6.78;;;3.70;;
27957;SDS011;15295;42.658;23.374;2023-04-03T01:40:31;7.05;;;3.58;;
27957;SDS011;15295;42.658;23.374;2023-04-03T01:42:58;6.85;;;3.65;;
27957;SDS011;15295;42.658;23.374;2023-04-03T01:45:23;5.57;;;3.05;;
27957;SDS011;15295;42.658;23.374;2023-04-03T01:47:49;7.60;;;3.35;;
27957;SDS011;15295;42.658;23.374;2023-04-03T01:50:14;8.93;;;2.67;;
27957;SDS011;15295;42.658;23.374;2023-04-03T01:52:40;8.55;;;2.95;;
27957;SDS011;15295;42.658;23.374;2023-04-03T01:55:05;5.65;;;2.80;;
27957;SDS011;15295;42.658;23.374;2023-04-03T01:57:31;7.60;;;3.20;;
27957;SDS011;15295;42.658;23.374;2023-04-03T01:59:58;14.65;;;5.30;;
27957;SDS011;15295;42.658;23.374;2023-04-03T02:02:24;12.45;;;5.20;;
27957;SDS011;15295;42.658;23.374;2023-04-03T02:04:50;10.05;;;4.40;;
27957;SDS011;15295;42.658;23.374;2023-04-03T02:07:15;8.35;;;3.00;;
27957;SDS011;15295;42.658;23.374;2023-04-03T02:09:40;7.45;;;3.83;;
27957;SDS011;15295;42.658;23.374;2023-04-03T02:12:07;8.10;;;3.30;;
27957;SDS011;15295;42.658;23.374;2023-04-03T02:14:32;7.38;;;3.25;;
27957;SDS011;15295;42.658;23.374;2023-04-03T02:16:59;6.78;;;3.05;;
27957;SDS011;15295;42.658;23.374;2023-04-03T02:19:27;5.95;;;2.92;;
27957;SDS011;15295;42.658;23.374;2023-04-03T02:21:52;7.95;;;3.35;;
27957;SDS011;15295;42.658;23.374;2023-04-03T02:24:18;5.68;;;3.20;;
27957;SDS011;15295;42.658;23.374;2023-04-03T02:26:44;9.50;;;3.47;;
27957;SDS011;15295;42.658;23.374;2023-04-03T02:29:09;8.75;;;3.40;;
27957;SDS011;15295;42.658;23.374;2023-04-03T02:31:35;5.50;;;3.50;;
27957;SDS011;15295;42.658;23.374;2023-04-03T02:34:01;5.43;;;3.10;;
27957;SDS011;15295;42.658;23.374;2023-04-03T02:36:26;7.40;;;2.95;;
27957;SDS011;15295;42.658;23.374;2023-04-03T02:38:52;6.57;;;2.83;;
27957;SDS011;15295;42.658;23.374;2023-04-03T02:41:17;5.93;;;2.72;;
27957;SDS011;15295;42.658;23.374;2023-04-03T02:43:43;5.45;;;3.00;;
27957;SDS011;15295;42.658;23.374;2023-04-03T02:46:08;5.47;;;2.88;;
27957;SDS011;15295;42.658;23.374;2023-04-03T02:48:34;7.30;;;2.75;;
27957;SDS011;15295;42.658;23.374;2023-04-03T02:51:00;7.00;;;2.70;;
27957;SDS011;15295;42.658;23.374;2023-04-03T02:53:26;6.68;;;2.88;;
27957;SDS011;15295;42.658;23.374;2023-04-03T02:55:51;7.43;;;3.55;;
27957;SDS011;15295;42.658;23.374;2023-04-03T02:58:18;6.90;;;2.70;;
27957;SDS011;15295;42.658;23.374;2023-04-03T03:00:43;6.45;;;3.40;;
27957;SDS011;15295;42.658;23.374;2023-04-03T03:03:09;5.07;;;2.45;;
27957;SDS011;15295;42.658;23.374;2023-04-03T03:05:34;10.60;;;2.75;;
27957;SDS011;15295;42.658;23.374;2023-04-03T03:08:01;9.02;;;3.13;;
27957;SDS011;15295;42.658;23.374;2023-04-03T03:10:26;4.90;;;2.58;;
27957;SDS011;15295;42.658;23.374;2023-04-03T03:12:52;5.32;;;2.63;;
27957;SDS011;15295;42.658;23.374;2023-04-03T03:15:18;5.13;;;2.90;;
27957;SDS011;15295;42.658;23.374;2023-04-03T03:17:44;7.00;;;3.05;;
27957;SDS011;15295;42.658;23.374;2023-04-03T03:20:10;6.65;;;2.72;;
27957;SDS011;15295;42.658;23.374;2023-04-03T03:22:36;6.25;;;3.10;;
27957;SDS011;15295;42.658;23.374;2023-04-03T03:25:02;5.45;;;3.10;;
27957;SDS011;15295;42.658;23.374;2023-04-03T03:27:28;7.15;;;2.90;;
27957;SDS011;15295;42.658;23.374;2023-04-03T03:29:53;8.48;;;3.05;;
27957;SDS011;15295;42.658;23.374;2023-04-03T03:32:19;9.80;;;3.42;;
27957;SDS011;15295;42.658;23.374;2023-04-03T03:34:44;6.47;;;2.90;;
27957;SDS011;15295;42.658;23.374;2023-04-03T03:37:11;5.32;;;2.83;;
27957;SDS011;15295;42.658;23.374;2023-04-03T03:39:39;6.53;;;2.88;;
27957;SDS011;15295;42.658;23.374;2023-04-03T03:42:05;4.38;;;2.50;;
27957;SDS011;15295;42.658;23.374;2023-04-03T03:44:30;5.95;;;2.85;;
27957;SDS011;15295;42.658;23.374;2023-04-03T03:46:56;6.93;;;3.30;;
27957;SDS011;15295;42.658;23.374;2023-04-03T03:49:21;6.15;;;2.90;;
27957;SDS011;15295;42.658;23.374;2023-04-03T03:51:47;4.70;;;2.83;;
27957;SDS011;15295;42.658;23.374;2023-04-03T03:54:12;7.80;;;2.75;;
27957;SDS011;15295;42.658;23.374;2023-04-03T03:56:38;11.40;;;3.08;;
27957;SDS011;15295;42.658;23.374;2023-04-03T03:59:04;5.82;;;3.00;;
27957;SDS011;15295;42.658;23.374;2023-04-03T04:01:30;11.05;;;3.00;;
27957;SDS011;15295;42.658;23.374;2023-04-03T04:03:56;5.10;;;2.70;;
27957;SDS011;15295;42.658;23.374;2023-04-03T04:06:21;7.07;;;2.70;;
27957;SDS011;15295;42.658;23.374;2023-04-03T04:08:47;4.82;;;2.58;;
27957;SDS011;15295;42.658;23.374;2023-04-03T04:11:12;3.70;;;2.08;;
27957;SDS011;15295;42.658;23.374;2023-04-03T04:13:38;5.22;;;2.83;;
27957;SDS011;15295;42.658;23.374;2023-04-03T04:16:04;9.60;;;2.67;;
27957;SDS011;15295;42.658;23.374;2023-04-03T04:18:30;6.97;;;3.17;;
27957;SDS011;15295;42.658;23.374;2023-04-03T04:20:55;7.75;;;3.20;;
27957;SDS011;15295;42.658;23.374;2023-04-03T04:23:21;9.88;;;3.50;;
27957;SDS011;15295;42.658;23.374;2023-04-03T04:25:48;15.10;;;5.60;;
27957;SDS011;15295;42.658;23.374;2023-04-03T04:28:14;8.30;;;3.85;;
27957;SDS011;15295;42.658;23.374;2023-04-03T04:30:40;8.60;;;3.90;;
27957;SDS011;15295;42.658;23.374;2023-04-03T04:33:07;8.35;;;3.83;;
27957;SDS011;15295;42.658;23.374;2023-04-03T04:35:32;16.80;;;4.95;;
27957;SDS011;15295;42.658;23.374;2023-04-03T04:37:58;10.63;;;4.18;;
27957;SDS011;15295;42.658;23.374;2023-04-03T04:40:24;11.13;;;4.75;;
27957;SDS011;15295;42.658;23.374;2023-04-03T04:42:50;10.77;;;4.07;;
27957;SDS011;15295;42.658;23.374;2023-04-03T04:45:17;17.80;;;4.95;;
27957;SDS011;15295;42.658;23.374;2023-04-03T04:47:42;17.92;;;6.03;;
27957;SDS011;15295;42.658;23.374;2023-04-03T04:50:08;10.55;;;4.25;;
27957;SDS011;15295;42.658;23.374;2023-04-03T04:52:34;12.98;;;4.18;;
27957;SDS011;15295;42.658;23.374;2023-04-03T04:55:01;8.90;;;3.92;;
27957;SDS011;15295;42.658;23.374;2023-04-03T04:57:26;15.80;;;4.40;;
27957;SDS011;15295;42.658;23.374;2023-04-03T04:59:52;19.50;;;4.85;;
27957;SDS011;15295;42.658;23.374;2023-04-03T05:02:17;22.02;;;5.25;;
27957;SDS011;15295;42.658;23.374;2023-04-03T05:04:44;15.70;;;4.40;;
27957;SDS011;15295;42.658;23.374;2023-04-03T05:07:10;12.43;;;5.07;;
27957;SDS011;15295;42.658;23.374;2023-04-03T05:09:35;19.60;;;9.15;;
27957;SDS011;15295;42.658;23.374;2023-04-03T05:12:01;23.52;;;6.70;;
27957;SDS011;15295;42.658;23.374;2023-04-03T05:14:27;23.50;;;7.57;;
27957;SDS011;15295;42.658;23.374;2023-04-03T05:16:53;16.90;;;5.80;;
27957;SDS011;15295;42.658;23.374;2023-04-03T05:19:19;15.98;;;5.78;;
27957;SDS011;15295;42.658;23.374;2023-04-03T05:21:47;29.13;;;6.18;;
27957;SDS011;15295;42.658;23.374;2023-04-03T05:24:13;14.70;;;5.10;;
27957;SDS011;15295;42.658;23.374;2023-04-03T05:26:42;9.45;;;4.95;;
27957;SDS011;15295;42.658;23.374;2023-04-03T05:29:08;15.15;;;4.80;;
27957;SDS011;15295;42.658;23.374;2023-04-03T05:31:34;16.58;;;5.07;;
27957;SDS011;15295;42.658;23.374;2023-04-03T05:34:00;25.42;;;7.13;;
27957;SDS011;15295;42.658;23.374;2023-04-03T05:36:33;20.25;;;6.15;;
27957;SDS011;15295;42.658;23.374;2023-04-03T05:38:58;18.75;;;5.43;;
27957;SDS011;15295;42.658;23.374;2023-04-03T05:41:30;32.90;;;6.65;;
27957;SDS011;15295;42.658;23.374;2023-04-03T05:44:02;27.98;;;7.05;;
27957;SDS011;15295;42.658;23.374;2023-04-03T05:46:28;23.35;;;6.43;;
27957;SDS011;15295;42.658;23.374;2023-04-03T05:48:53;19.10;;;6.03;;
27957;SDS011;15295;42.658;23.374;2023-04-03T05:51:20;16.83;;;6.28;;
27957;SDS011;15295;42.658;23.374;2023-04-03T05:53:48;22.67;;;7.40;;
27957;SDS011;15295;42.658;23.374;2023-04-03T06:01:27;21.63;;;8.75;;
27957;SDS011;15295;42.658;23.374;2023-04-03T06:03:53;22.17;;;8.00;;
27957;SDS011;15295;42.658;23.374;2023-04-03T06:06:42;18.10;;;8.20;;
27957;SDS011;15295;42.658;23.374;2023-04-03T06:09:12;18.10;;;7.72;;
27957;SDS011;15295;42.658;23.374;2023-04-03T06:11:38;18.45;;;7.03;;
27957;SDS011;15295;42.658;23.374;2023-04-03T06:14:04;21.73;;;8.43;;
27957;SDS011;15295;42.658;23.374;2023-04-03T06:16:29;19.42;;;8.55;;
27957;SDS011;15295;42.658;23.374;2023-04-03T06:18:55;29.05;;;9.55;;
27957;SDS011;15295;42.658;23.374;2023-04-03T06:21:21;22.35;;;9.93;;
27957;SDS011;15295;42.658;23.374;2023-04-03T06:23:46;24.45;;;9.70;;
27957;SDS011;15295;42.658;23.374;2023-04-03T06:26:13;24.02;;;10.40;;
27957;SDS011;15295;42.658;23.374;2023-04-03T06:28:39;33.70;;;11.00;;
27957;SDS011;15295;42.658;23.374;2023-04-03T06:31:05;28.77;;;11.25;;
27957;SDS011;15295;42.658;23.374;2023-04-03T06:33:30;31.00;;;12.02;;
27957;SDS011;15295;42.658;23.374;2023-04-03T06:35:57;34.95;;;15.88;;
27957;SDS011;15295;42.658;23.374;2023-04-03T06:38:23;51.85;;;23.40;;
27957;SDS011;15295;42.658;23.374;2023-04-03T06:40:49;41.75;;;21.75;;
27957;SDS011;15295;42.658;23.374;2023-04-03T06:43:14;36.63;;;18.42;;
27957;SDS011;15295;42.658;23.374;2023-04-03T06:45:40;32.92;;;15.80;;
27957;SDS011;15295;42.658;23.374;2023-04-03T06:48:05;34.63;;;16.00;;
27957;SDS011;15295;42.658;23.374;2023-04-03T06:50:31;34.30;;;18.25;;
27957;SDS011;15295;42.658;23.374;2023-04-03T06:52:56;34.45;;;18.35;;
27957;SDS011;15295;42.658;23.374;2023-04-03T06:55:22;36.58;;;19.60;;
27957;SDS011;15295;42.658;23.374;2023-04-03T06:57:59;38.20;;;18.23;;
27957;SDS011;15295;42.658;23.374;2023-04-03T07:00:25;32.95;;;18.08;;
27957;SDS011;15295;42.658;23.374;2023-04-03T07:02:51;51.35;;;22.15;;
27957;SDS011;15295;42.658;23.374;2023-04-03T07:05:16;43.88;;;18.77;;
27957;SDS011;15295;42.658;23.374;2023-04-03T07:07:42;25.85;;;13.27;;
27957;SDS011;15295;42.658;23.374;2023-04-03T07:10:08;45.92;;;15.05;;
27957;SDS011;15295;42.658;23.374;2023-04-03T07:12:34;33.55;;;17.00;;
27957;SDS011;15295;42.658;23.374;2023-04-03T07:15:00;35.08;;;14.75;;
27957;SDS011;15295;42.658;23.374;2023-04-03T07:17:25;31.48;;;15.40;;
27957;SDS011;15295;42.658;23.374;2023-04-03T07:19:51;40.97;;;20.65;;
27957;SDS011;15295;42.658;23.374;2023-04-03T07:22:16;43.25;;;23.30;;
27957;SDS011;15295;42.658;23.374;2023-04-03T07:24:42;50.75;;;23.40;;
27957;SDS011;15295;42.658;23.374;2023-04-03T07:27:08;34.85;;;15.98;;
27957;SDS011;15295;42.658;23.374;2023-04-03T07:29:33;26.85;;;13.23;;
27957;SDS011;15295;42.658;23.374;2023-04-03T07:31:59;29.05;;;12.13;;
27957;SDS011;15295;42.658;23.374;2023-04-03T07:34:25;25.05;;;12.77;;
27957;SDS011;15295;42.658;23.374;2023-04-03T07:36:51;32.97;;;15.43;;
27957;SDS011;15295;42.658;23.374;2023-04-03T07:39:16;44.25;;;20.05;;
27957;SDS011;15295;42.658;23.374;2023-04-03T07:41:42;34.90;;;15.10;;
27957;SDS011;15295;42.658;23.374;2023-04-03T07:44:07;34.67;;;16.05;;
27957;SDS011;15295;42.658;23.374;2023-04-03T07:46:35;38.60;;;17.92;;
27957;SDS011;15295;42.658;23.374;2023-04-03T07:49:01;35.67;;;18.08;;
27957;SDS011;15295;42.658;23.374;2023-04-03T07:51:27;42.17;;;17.15;;
27957;SDS011;15295;42.658;23.374;2023-04-03T07:53:54;38.42;;;17.40;;
27957;SDS011;15295;42.658;23.374;2023-04-03T07:56:20;35.38;;;17.52;;
27957;SDS011;15295;42.658;23.374;2023-04-03T08:01:16;38.30;;;17.65;;
27957;SDS011;15295;42.658;23.374;2023-04-03T08:03:41;44.42;;;19.80;;
27957;SDS011;15295;42.658;23.374;2023-04-03T08:06:07;50.58;;;17.70;;
27957;SDS011;15295;42.658;23.374;2023-04-03T08:08:34;47.92;;;20.55;;
27957;SDS011;15295;42.658;23.374;2023-04-03T08:11:00;33.03;;;15.85;;
27957;SDS011;15295;42.658;23.374;2023-04-03T08:13:28;26.70;;;15.43;;
27957;SDS011;15295;42.658;23.374;2023-04-03T08:15:54;30.67;;;16.15;;
27957;SDS011;15295;42.658;23.374;2023-04-03T08:18:23;39.75;;;18.65;;
27957;SDS011;15295;42.658;23.374;2023-04-03T08:20:49;37.35;;;16.88;;
27957;SDS011;15295;42.658;23.374;2023-04-03T08:23:16;31.60;;;16.83;;
27957;SDS011;15295;42.658;23.374;2023-04-03T08:25:42;31.75;;;15.55;;
27957;SDS011;15295;42.658;23.374;2023-04-03T08:28:08;33.88;;;16.15;;
27957;SDS011;15295;42.658;23.374;2023-04-03T08:30:35;30.73;;;16.38;;
27957;SDS011;15295;42.658;23.374;2023-04-03T08:33:01;31.00;;;16.02;;
27957;SDS011;15295;42.658;23.374;2023-04-03T08:35:27;40.70;;;16.90;;
27957;SDS011;15295;42.658;23.374;2023-04-03T08:37:53;35.30;;;16.63;;
27957;SDS011;15295;42.658;23.374;2023-04-03T08:40:19;37.53;;;16.65;;
27957;SDS011;15295;42.658;23.374;2023-04-03T08:48:06;37.00;;;17.65;;
27957;SDS011;15295;42.658;23.374;2023-04-03T08:50:38;33.70;;;17.45;;
27957;SDS011;15295;42.658;23.374;2023-04-03T08:53:10;41.80;;;16.73;;
27957;SDS011;15295;42.658;23.374;2023-04-03T08:55:42;37.13;;;16.02;;
27957;SDS011;15295;42.658;23.374;2023-04-03T09:03:13;27.35;;;13.43;;
27957;SDS011;15295;42.658;23.374;2023-04-03T09:05:52;30.88;;;13.30;;
27957;SDS011;15295;42.658;23.374;2023-04-03T09:10:49;27.73;;;14.40;;
27957;SDS011;15295;42.658;23.374;2023-04-03T09:13:30;31.08;;;13.57;;
27957;SDS011;15295;42.658;23.374;2023-04-03T09:16:20;30.83;;;12.45;;
27957;SDS011;15295;42.658;23.374;2023-04-03T09:18:48;32.90;;;13.55;;
27957;SDS011;15295;42.658;23.374;2023-04-03T09:21:25;30.10;;;13.23;;
27957;SDS011;15295;42.658;23.374;2023-04-03T09:23:58;26.40;;;13.50;;
27957;SDS011;15295;42.658;23.374;2023-04-03T09:29:21;20.80;;;10.07;;
27957;SDS011;15295;42.658;23.374;2023-04-03T09:31:49;25.30;;;10.25;;
27957;SDS011;15295;42.658;23.374;2023-04-03T09:36:47;17.30;;;8.32;;
27957;SDS011;15295;42.658;23.374;2023-04-03T09:39:30;19.45;;;9.13;;
27957;SDS011;15295;42.658;23.374;2023-04-03T09:42:00;16.42;;;8.02;;
27957;SDS011;15295;42.658;23.374;2023-04-03T09:47:27;21.80;;;7.78;;
27957;SDS011;15295;42.658;23.374;2023-04-03T09:52:45;12.93;;;7.47;;
27957;SDS011;15295;42.658;23.374;2023-04-03T09:55:16;16.27;;;8.93;;
27957;SDS011;15295;42.658;23.374;2023-04-03T09:57:44;23.38;;;10.10;;
27957;SDS011;15295;42.658;23.374;2023-04-03T10:00:21;18.13;;;11.55;;
27957;SDS011;15295;42.658;23.374;2023-04-03T10:02:54;18.13;;;8.02;;
27957;SDS011;15295;42.658;23.374;2023-04-03T10:05:28;20.40;;;8.43;;
27957;SDS011;15295;42.658;23.374;2023-04-03T10:10:41;15.02;;;7.18;;
27957;SDS011;15295;42.658;23.374;2023-04-03T10:13:14;21.83;;;7.47;;
27957;SDS011;15295;42.658;23.374;2023-04-03T10:18:49;13.50;;;5.93;;
27957;SDS011;15295;42.658;23.374;2023-04-03T10:27:16;12.75;;;6.03;;
27957;SDS011;15295;42.658;23.374;2023-04-03T10:35:37;7.78;;;4.20;;
27957;SDS011;15295;42.658;23.374;2023-04-03T10:38:31;10.18;;;4.03;;
27957;SDS011;15295;42.658;23.374;2023-04-03T10:41:12;12.70;;;4.22;;
27957;SDS011;15295;42.658;23.374;2023-04-03T10:46:52;8.95;;;3.92;;
27957;SDS011;15295;42.658;23.374;2023-04-03T10:57:52;7.05;;;3.70;;
27957;SDS011;15295;42.658;23.374;2023-04-03T11:00:35;6.78;;;3.38;;
27957;SDS011;15295;42.658;23.374;2023-04-03T11:03:11;11.70;;;6.07;;
27957;SDS011;15295;42.658;23.374;2023-04-03T11:11:04;7.97;;;3.17;;
27957;SDS011;15295;42.658;23.374;2023-04-03T11:16:42;5.22;;;3.35;;
27957;SDS011;15295;42.658;23.374;2023-04-03T11:19:18;6.32;;;3.13;;
27957;SDS011;15295;42.658;23.374;2023-04-03T11:21:56;6.15;;;3.50;;
27957;SDS011;15295;42.658;23.374;2023-04-03T11:24:31;5.10;;;3.42;;
27957;SDS011;15295;42.658;23.374;2023-04-03T11:26:58;5.90;;;3.55;;
27957;SDS011;15295;42.658;23.374;2023-04-03T11:29:32;6.15;;;2.72;;
27957;SDS011;15295;42.658;23.374;2023-04-03T11:35:02;8.50;;;3.63;;
27957;SDS011;15295;42.658;23.374;2023-04-03T11:37:36;6.30;;;3.35;;
27957;SDS011;15295;42.658;23.374;2023-04-03T11:40:18;4.65;;;3.40;;
27957;SDS011;15295;42.658;23.374;2023-04-03T11:50:56;7.63;;;5.00;;
27957;SDS011;15295;42.658;23.374;2023-04-03T11:53:46;9.18;;;4.70;;
27957;SDS011;15295;42.658;23.374;2023-04-03T12:04:10;9.15;;;3.63;;
27957;SDS011;15295;42.658;23.374;2023-04-03T12:09:10;5.82;;;3.72;;
27957;SDS011;15295;42.658;23.374;2023-04-03T12:11:49;7.00;;;3.83;;
27957;SDS011;15295;42.658;23.374;2023-04-03T12:14:17;7.68;;;4.55;;
27957;SDS011;15295;42.658;23.374;2023-04-03T12:16:44;6.05;;;4.00;;
27957;SDS011;15295;42.658;23.374;2023-04-03T12:35:17;6.80;;;3.15;;
27957;SDS011;15295;42.658;23.374;2023-04-03T12:48:36;9.00;;;5.05;;
27957;SDS011;15295;42.658;23.374;2023-04-03T12:51:04;10.85;;;5.28;;
27957;SDS011;15295;42.658;23.374;2023-04-03T12:53:34;9.50;;;4.82;;
27957;SDS011;15295;42.658;23.374;2023-04-03T12:58:51;6.10;;;4.43;;
27957;SDS011;15295;42.658;23.374;2023-04-03T13:01:20;6.00;;;4.43;;
27957;SDS011;15295;42.658;23.374;2023-04-03T13:03:52;7.85;;;4.45;;
27957;SDS011;15295;42.658;23.374;2023-04-03T13:06:23;9.02;;;5.00;;
27957;SDS011;15295;42.658;23.374;2023-04-03T13:08:56;12.02;;;5.18;;
27957;SDS011;15295;42.658;23.374;2023-04-03T13:11:23;7.80;;;5.22;;
27957;SDS011;15295;42.658;23.374;2023-04-03T13:13:57;9.82;;;4.93;;
27957;SDS011;15295;42.658;23.374;2023-04-03T13:16:25;10.00;;;6.47;;
27957;SDS011;15295;42.658;23.374;2023-04-03T13:18:52;12.20;;;6.32;;
27957;SDS011;15295;42.658;23.374;2023-04-03T13:21:20;10.32;;;7.15;;
27957;SDS011;15295;42.658;23.374;2023-04-03T13:23:50;10.60;;;6.82;;
27957;SDS011;15295;42.658;23.374;2023-04-03T13:26:20;10.48;;;7.50;;
27957;SDS011;15295;42.658;23.374;2023-04-03T13:28:47;9.48;;;7.07;;
27957;SDS011;15295;42.658;23.374;2023-04-03T13:33:43;15.55;;;9.90;;
27957;SDS011;15295;42.658;23.374;2023-04-03T13:36:34;17.90;;;9.13;;
27957;SDS011;15295;42.658;23.374;2023-04-03T13:41:47;13.97;;;9.90;;
27957;SDS011;15295;42.658;23.374;2023-04-03T13:46:46;13.05;;;8.23;;
27957;SDS011;15295;42.658;23.374;2023-04-03T13:51:44;11.23;;;7.72;;
27957;SDS011;15295;42.658;23.374;2023-04-03T13:54:15;12.82;;;8.27;;
27957;SDS011;15295;42.658;23.374;2023-04-03T13:57:02;10.98;;;8.13;;
27957;SDS011;15295;42.658;23.374;2023-04-03T13:59:36;10.75;;;7.15;;
27957;SDS011;15295;42.658;23.374;2023-04-03T14:04:28;14.43;;;7.97;;
27957;SDS011;15295;42.658;23.374;2023-04-03T14:06:56;10.95;;;8.07;;
27957;SDS011;15295;42.658;23.374;2023-04-03T14:09:23;12.02;;;7.32;;
27957;SDS011;15295;42.658;23.374;2023-04-03T14:11:53;10.85;;;6.60;;
27957;SDS011;15295;42.658;23.374;2023-04-03T14:14:24;12.45;;;7.07;;
27957;SDS011;15295;42.658;23.374;2023-04-03T14:16:56;10.75;;;6.82;;
27957;SDS011;15295;42.658;23.374;2023-04-03T14:19:27;9.60;;;6.90;;
27957;SDS011;15295;42.658;23.374;2023-04-03T14:21:55;11.07;;;7.07;;
27957;SDS011;15295;42.658;23.374;2023-04-03T14:24:28;9.52;;;6.38;;
27957;SDS011;15295;42.658;23.374;2023-04-03T14:26:54;9.63;;;6.40;;
27957;SDS011;15295;42.658;23.374;2023-04-03T14:29:20;8.40;;;5.80;;
27957;SDS011;15295;42.658;23.374;2023-04-03T14:31:47;9.60;;;6.55;;
27957;SDS011;15295;42.658;23.374;2023-04-03T14:34:16;10.38;;;7.38;;
27957;SDS011;15295;42.658;23.374;2023-04-03T14:36:42;10.40;;;6.97;;
27957;SDS011;15295;42.658;23.374;2023-04-03T14:39:16;13.65;;;6.93;;
27957;SDS011;15295;42.658;23.374;2023-04-03T14:41:43;9.70;;;6.97;;
27957;SDS011;15295;42.658;23.374;2023-04-03T14:44:12;10.60;;;6.22;;
27957;SDS011;15295;42.658;23.374;2023-04-03T14:46:39;11.02;;;7.75;;
27957;SDS011;15295;42.658;23.374;2023-04-03T14:49:14;8.90;;;6.63;;
27957;SDS011;15295;42.658;23.374;2023-04-03T14:51:41;7.72;;;5.20;;
27957;SDS011;15295;42.658;23.374;2023-04-03T14:54:10;9.90;;;5.05;;
27957;SDS011;15295;42.658;23.374;2023-04-03T14:56:39;9.45;;;5.07;;
27957;SDS011;15295;42.658;23.374;2023-04-03T14:59:05;6.57;;;4.93;;
27957;SDS011;15295;42.658;23.374;2023-04-03T15:01:36;9.27;;;5.30;;
27957;SDS011;15295;42.658;23.374;2023-04-03T15:04:01;6.10;;;4.50;;
27957;SDS011;15295;42.658;23.374;2023-04-03T15:06:27;6.15;;;4.10;;
27957;SDS011;15295;42.658;23.374;2023-04-03T15:08:52;6.45;;;4.05;;
27957;SDS011;15295;42.658;23.374;2023-04-03T15:11:18;6.93;;;4.47;;
27957;SDS011;15295;42.658;23.374;2023-04-03T15:13:43;7.10;;;4.90;;
27957;SDS011;15295;42.658;23.374;2023-04-03T15:16:14;4.40;;;3.63;;
27957;SDS011;15295;42.658;23.374;2023-04-03T15:18:43;7.60;;;4.95;;
27957;SDS011;15295;42.658;23.374;2023-04-03T15:21:11;7.03;;;4.38;;
27957;SDS011;15295;42.658;23.374;2023-04-03T15:23:42;7.35;;;4.50;;
27957;SDS011;15295;42.658;23.374;2023-04-03T15:26:07;8.15;;;4.78;;
27957;SDS011;15295;42.658;23.374;2023-04-03T15:28:35;7.35;;;4.63;;
27957;SDS011;15295;42.658;23.374;2023-04-03T15:31:04;7.63;;;4.43;;
27957;SDS011;15295;42.658;23.374;2023-04-03T15:33:31;9.95;;;5.30;;
27957;SDS011;15295;42.658;23.374;2023-04-03T15:35:57;9.65;;;5.88;;
27957;SDS011;15295;42.658;23.374;2023-04-03T15:38:23;6.18;;;4.00;;
27957;SDS011;15295;42.658;23.374;2023-04-03T15:40:49;6.68;;;4.00;;
27957;SDS011;15295;42.658;23.374;2023-04-03T15:43:14;8.95;;;5.03;;
27957;SDS011;15295;42.658;23.374;2023-04-03T15:45:40;7.20;;;4.57;;
27957;SDS011;15295;42.658;23.374;2023-04-03T15:48:06;7.93;;;4.63;;
27957;SDS011;15295;42.658;23.374;2023-04-03T15:50:33;7.78;;;4.82;;
27957;SDS011;15295;42.658;23.374;2023-04-03T15:52:59;8.05;;;5.53;;
27957;SDS011;15295;42.658;23.374;2023-04-03T15:55:30;8.40;;;5.20;;
27957;SDS011;15295;42.658;23.374;2023-04-03T15:57:57;10.27;;;6.30;;
27957;SDS011;15295;42.658;23.374;2023-04-03T16:00:25;7.55;;;5.07;;
27957;SDS011;15295;42.658;23.374;2023-04-03T16:02:52;8.20;;;5.57;;
27957;SDS011;15295;42.658;23.374;2023-04-03T16:05:22;7.82;;;5.75;;
27957;SDS011;15295;42.658;23.374;2023-04-03T16:07:49;10.02;;;6.60;;
27957;SDS011;15295;42.658;23.374;2023-04-03T16:10:15;10.50;;;7.43;;
27957;SDS011;15295;42.658;23.374;2023-04-03T16:12:42;9.80;;;6.57;;
27957;SDS011;15295;42.658;23.374;2023-04-03T16:15:08;10.38;;;6.78;;
27957;SDS011;15295;42.658;23.374;2023-04-03T16:17:34;10.32;;;6.80;;
27957;SDS011;15295;42.658;23.374;2023-04-03T16:20:02;11.35;;;7.30;;
27957;SDS011;15295;42.658;23.374;2023-04-03T16:22:29;9.55;;;6.60;;
27957;SDS011;15295;42.658;23.374;2023-04-03T16:24:59;9.18;;;7.20;;
27957;SDS011;15295;42.658;23.374;2023-04-03T16:27:24;11.13;;;7.30;;
27957;SDS011;15295;42.658;23.374;2023-04-03T16:29:55;13.85;;;7.47;;
27957;SDS011;15295;42.658;23.374;2023-04-03T16:32:21;11.07;;;6.40;;
27957;SDS011;15295;42.658;23.374;2023-04-03T16:34:47;8.48;;;6.47;;
27957;SDS011;15295;42.658;23.374;2023-04-03T16:37:13;15.10;;;8.38;;
27957;SDS011;15295;42.658;23.374;2023-04-03T16:39:39;10.23;;;8.13;;
27957;SDS011;15295;42.658;23.374;2023-04-03T16:42:05;12.43;;;7.72;;
27957;SDS011;15295;42.658;23.374;2023-04-03T16:44:30;10.73;;;8.35;;
27957;SDS011;15295;42.658;23.374;2023-04-03T16:46:55;10.40;;;7.88;;
27957;SDS011;15295;42.658;23.374;2023-04-03T16:49:21;12.35;;;6.60;;